createdAt,value
2022-09-03T00:00:09.688Z,23.03
2022-09-03T00:02:09.556Z,23.26
2022-09-03T00:04:09.648Z,23.22
2022-09-03T00:06:09.735Z,23.26
2022-09-03T00:08:09.716Z,23.25
2022-09-03T00:10:09.698Z,23.24
2022-09-03T00:12:09.723Z,23.29
2022-09-03T00:14:09.760Z,23.33
2022-09-03T00:16:09.770Z,23.25
2022-09-03T00:18:09.738Z,23.19
2022-09-03T00:20:09.732Z,23.16
2022-09-03T00:22:09.728Z,23.26
2022-09-03T00:24:14.117Z,23.20
2022-09-03T00:26:09.659Z,23.06
2022-09-03T00:28:09.742Z,23.26
2022-09-03T00:30:09.696Z,23.12
2022-09-03T00:32:09.725Z,23.10
2022-09-03T00:34:09.684Z,23.12
2022-09-03T00:36:09.627Z,22.82
2022-09-03T00:38:09.747Z,22.74
2022-09-03T00:40:09.721Z,22.99
2022-09-03T00:42:09.722Z,22.90
2022-09-03T00:44:09.746Z,22.91
2022-09-03T00:46:09.780Z,22.78
2022-09-03T00:48:09.691Z,22.74
2022-09-03T00:50:09.758Z,22.96
2022-09-03T00:52:09.752Z,23.07
2022-09-03T00:54:09.793Z,22.96
2022-09-03T00:56:09.642Z,23.00
2022-09-03T00:58:10.120Z,22.96
2022-09-03T01:00:09.636Z,22.98
2022-09-03T01:02:09.861Z,22.99
2022-09-03T01:04:09.723Z,23.13
2022-09-03T01:06:09.733Z,23.19
2022-09-03T01:08:09.733Z,23.03
2022-09-03T01:10:09.641Z,23.14
2022-09-03T01:12:09.762Z,23.16
2022-09-03T01:14:09.746Z,23.20
2022-09-03T01:16:09.830Z,23.13
2022-09-03T01:18:09.691Z,23.11
2022-09-03T01:20:09.786Z,23.13
2022-09-03T01:22:09.803Z,23.00
2022-09-03T01:24:09.786Z,23.08
2022-09-03T01:26:09.752Z,22.95
2022-09-03T01:28:09.800Z,22.82
2022-09-03T01:30:09.703Z,22.83
2022-09-03T01:32:09.817Z,22.74
2022-09-03T01:34:09.693Z,22.88
2022-09-03T01:36:09.741Z,22.83
2022-09-03T01:38:09.802Z,22.81
2022-09-03T01:40:09.836Z,23.02
2022-09-03T01:42:09.825Z,23.20
2022-09-03T01:44:09.699Z,23.20
2022-09-03T01:46:09.833Z,23.12
2022-09-03T01:48:09.813Z,23.19
2022-09-03T01:50:09.834Z,22.94
2022-09-03T01:52:09.806Z,22.96
2022-09-03T01:54:10.870Z,22.99
2022-09-03T01:56:09.800Z,22.91
2022-09-03T01:58:09.820Z,22.94
2022-09-03T02:00:09.813Z,23.01
2022-09-03T02:02:09.981Z,22.96
2022-09-03T02:04:09.863Z,22.94
2022-09-03T02:06:09.747Z,23.08
2022-09-03T02:08:09.794Z,23.03
2022-09-03T02:10:09.835Z,23.03
2022-09-03T02:12:09.834Z,23.05
2022-09-03T02:14:09.828Z,23.16
2022-09-03T02:16:09.779Z,22.88
2022-09-03T02:18:09.665Z,22.76
2022-09-03T02:20:09.885Z,22.72
2022-09-03T02:22:09.840Z,22.93
2022-09-03T02:24:09.804Z,22.82
2022-09-03T02:26:09.810Z,22.79
2022-09-03T02:28:17.375Z,22.78
2022-09-03T02:30:09.808Z,22.87
2022-09-03T02:32:09.912Z,23.18
2022-09-03T02:34:09.857Z,22.93
2022-09-03T02:36:09.861Z,22.96
2022-09-03T02:38:09.835Z,23.05
2022-09-03T02:40:10.000Z,23.01
2022-09-03T02:42:09.874Z,22.95
2022-09-03T02:44:09.877Z,22.96
2022-09-03T02:46:09.917Z,23.00
2022-09-03T02:48:09.812Z,23.03
2022-09-03T02:50:09.889Z,23.05
2022-09-03T02:52:09.911Z,22.98
2022-09-03T02:54:09.846Z,23.10
2022-09-03T02:56:09.757Z,23.04
2022-09-03T02:58:09.813Z,22.99
2022-09-03T03:00:09.900Z,22.95
2022-09-03T03:02:09.928Z,22.97
2022-09-03T03:04:09.861Z,23.07
2022-09-03T03:06:09.903Z,22.73
2022-09-03T03:08:09.892Z,22.83
2022-09-03T03:10:09.803Z,22.78
2022-09-03T03:12:09.944Z,22.77
2022-09-03T03:14:09.914Z,22.73
2022-09-03T03:16:09.895Z,22.87
2022-09-03T03:18:09.975Z,22.81
2022-09-03T03:20:09.767Z,22.96
2022-09-03T03:22:09.909Z,23.03
2022-09-03T03:24:09.850Z,22.96
2022-09-03T03:26:09.927Z,22.97
2022-09-03T03:28:09.863Z,22.95
2022-09-03T03:30:09.944Z,22.87
2022-09-03T03:32:09.956Z,22.84
2022-09-03T03:34:09.824Z,22.95
2022-09-03T03:36:09.918Z,22.97
2022-09-03T03:38:09.963Z,23.01
2022-09-03T03:40:09.932Z,22.96
2022-09-03T03:42:09.964Z,22.92
2022-09-03T03:44:09.890Z,22.88
2022-09-03T03:46:09.963Z,22.91
2022-09-03T03:48:09.936Z,22.90
2022-09-03T03:50:09.937Z,22.95
2022-09-03T03:52:09.961Z,22.95
2022-09-03T03:54:09.777Z,22.87
2022-09-03T03:56:09.946Z,22.64
2022-09-03T03:58:09.945Z,22.68
2022-09-03T04:00:09.941Z,22.68
2022-09-03T04:02:09.946Z,22.60
2022-09-03T04:04:12.638Z,22.69
2022-09-03T04:06:09.877Z,22.64
2022-09-03T04:08:09.997Z,22.62
2022-09-03T04:10:09.896Z,22.76
2022-09-03T04:12:09.974Z,22.70
2022-09-03T04:14:10.022Z,22.70
2022-09-03T04:16:09.958Z,22.70
2022-09-03T04:18:09.940Z,22.68
2022-09-03T04:20:09.994Z,22.70
2022-09-03T04:22:09.935Z,22.71
2022-09-03T04:24:09.868Z,22.71
2022-09-03T04:26:09.882Z,22.69
2022-09-03T04:28:09.900Z,22.71
2022-09-03T04:30:10.079Z,22.82
2022-09-03T04:32:09.868Z,22.92
2022-09-03T04:34:10.041Z,22.95
2022-09-03T04:36:09.986Z,22.80
2022-09-03T04:38:10.028Z,22.88
2022-09-03T04:40:10.029Z,22.95
2022-09-03T04:42:09.937Z,22.81
2022-09-03T04:44:09.939Z,22.62
2022-09-03T04:46:16.129Z,22.68
2022-09-03T04:48:09.861Z,22.65
2022-09-03T04:50:09.923Z,22.58
2022-09-03T04:52:09.990Z,22.66
2022-09-03T04:54:10.040Z,22.68
2022-09-03T04:56:09.919Z,22.68
2022-09-03T04:58:09.929Z,22.68
2022-09-03T05:00:10.021Z,22.87
2022-09-03T05:02:09.978Z,22.96
2022-09-03T05:04:10.059Z,22.91
2022-09-03T05:06:10.052Z,22.91
2022-09-03T05:08:10.067Z,22.79
2022-09-03T05:10:10.039Z,22.87
2022-09-03T05:12:10.076Z,22.95
2022-09-03T05:14:10.071Z,22.87
2022-09-03T05:16:10.088Z,22.95
2022-09-03T05:18:10.039Z,22.88
2022-09-03T05:20:10.055Z,22.85
2022-09-03T05:22:10.010Z,22.88
2022-09-03T05:24:10.086Z,22.82
2022-09-03T05:26:10.810Z,22.92
2022-09-03T05:28:09.982Z,22.73
2022-09-03T05:30:12.619Z,22.95
2022-09-03T05:32:10.098Z,22.92
2022-09-03T05:34:10.200Z,22.92
2022-09-03T05:36:09.975Z,22.76
2022-09-03T05:38:10.039Z,22.72
2022-09-03T05:40:10.035Z,22.58
2022-09-03T05:42:09.943Z,22.65
2022-09-03T05:44:10.095Z,22.70
2022-09-03T05:46:10.213Z,22.68
2022-09-03T05:48:10.089Z,22.85
2022-09-03T05:50:10.062Z,22.83
2022-09-03T05:52:10.065Z,22.92
2022-09-03T05:54:10.182Z,22.85
2022-09-03T05:56:10.094Z,23.01
2022-09-03T05:58:10.135Z,22.96
2022-09-03T06:00:10.115Z,22.96
2022-09-03T06:02:10.199Z,22.90
2022-09-03T06:04:10.078Z,23.11
2022-09-03T06:06:10.025Z,23.15
2022-09-03T06:08:10.027Z,23.16
2022-09-03T06:10:10.136Z,23.23
2022-09-03T06:12:10.104Z,23.37
2022-09-03T06:14:10.132Z,23.42
2022-09-03T06:16:09.986Z,23.53
2022-09-03T06:18:10.128Z,23.50
2022-09-03T06:20:10.088Z,23.59
2022-09-03T06:22:10.146Z,23.63
2022-09-03T06:24:10.109Z,23.11
2022-09-03T06:26:10.018Z,22.97
2022-09-03T06:28:10.139Z,22.70
2022-09-03T06:30:10.070Z,22.71
2022-09-03T06:32:10.165Z,22.68
2022-09-03T06:34:10.126Z,22.68
2022-09-03T06:36:10.078Z,22.68
2022-09-03T06:38:10.196Z,22.83
2022-09-03T06:40:10.111Z,23.20
2022-09-03T06:42:10.141Z,23.43
2022-09-03T06:44:10.173Z,23.66
2022-09-03T06:46:10.217Z,23.77
2022-09-03T06:48:10.009Z,23.81
2022-09-03T06:50:10.159Z,23.98
2022-09-03T06:52:10.141Z,25.46
2022-09-03T06:54:10.167Z,23.89
2022-09-03T06:56:10.172Z,23.91
2022-09-03T06:58:10.152Z,24.10
2022-09-03T07:00:10.065Z,23.96
2022-09-03T07:02:10.388Z,23.97
2022-09-03T07:04:10.191Z,24.12
2022-09-03T07:06:10.168Z,24.10
2022-09-03T07:08:10.182Z,24.11
2022-09-03T07:10:10.195Z,24.12
2022-09-03T07:12:10.108Z,24.12
2022-09-03T07:14:10.146Z,23.80
2022-09-03T07:16:10.147Z,23.57
2022-09-03T07:18:10.181Z,23.42
2022-09-03T07:20:10.074Z,23.38
2022-09-03T07:22:10.196Z,23.30
2022-09-03T07:24:10.239Z,23.34
2022-09-03T07:26:10.213Z,23.34
2022-09-03T07:28:10.177Z,23.75
2022-09-03T07:30:10.212Z,24.14
2022-09-03T07:32:10.302Z,23.96
2022-09-03T07:34:10.471Z,24.12
2022-09-03T07:36:10.130Z,24.18
2022-09-03T07:38:10.218Z,24.04
2022-09-03T07:40:10.173Z,24.30
2022-09-03T07:42:10.185Z,24.35
2022-09-03T07:44:10.270Z,24.23
2022-09-03T07:46:10.187Z,24.27
2022-09-03T07:48:10.219Z,24.26
2022-09-03T07:50:10.226Z,24.18
2022-09-03T07:52:11.896Z,24.20
2022-09-03T07:54:10.234Z,24.22
2022-09-03T07:56:10.130Z,24.33
2022-09-03T07:58:10.247Z,24.29
2022-09-03T08:00:10.205Z,24.20
2022-09-03T08:02:10.310Z,24.19
2022-09-03T08:04:10.306Z,24.36
2022-09-03T08:06:10.287Z,23.66
2022-09-03T08:08:10.216Z,23.53
2022-09-03T08:10:10.108Z,23.53
2022-09-03T08:12:10.152Z,23.36
2022-09-03T08:14:10.211Z,23.38
2022-09-03T08:16:10.343Z,23.25
2022-09-03T08:18:10.151Z,23.42
2022-09-03T08:20:10.267Z,23.59
2022-09-03T08:22:10.194Z,23.81
2022-09-03T08:24:10.175Z,23.96
2022-09-03T08:26:10.137Z,24.05
2022-09-03T08:28:10.248Z,24.12
2022-09-03T08:30:10.319Z,24.39
2022-09-03T08:32:10.166Z,24.47
2022-09-03T08:34:10.174Z,24.78
2022-09-03T08:36:10.236Z,25.13
2022-09-03T08:38:10.902Z,25.50
2022-09-03T08:40:10.299Z,25.01
2022-09-03T08:42:10.149Z,24.51
2022-09-03T08:44:10.285Z,24.39
2022-09-03T08:46:10.303Z,24.30
2022-09-03T08:48:10.180Z,24.33
2022-09-03T08:50:10.341Z,24.20
2022-09-03T08:52:10.137Z,24.24
2022-09-03T08:54:10.282Z,24.21
2022-09-03T08:56:10.240Z,23.84
2022-09-03T08:58:10.205Z,23.81
2022-09-03T09:00:10.263Z,23.65
2022-09-03T09:02:10.455Z,23.81
2022-09-03T09:04:10.266Z,23.88
2022-09-03T09:06:10.252Z,24.01
2022-09-03T09:08:10.227Z,24.02
2022-09-03T09:10:10.223Z,24.66
2022-09-03T09:12:10.232Z,24.35
2022-09-03T09:14:10.343Z,24.38
2022-09-03T09:16:10.341Z,24.48
2022-09-03T09:18:10.355Z,24.34
2022-09-03T09:20:10.308Z,24.48
2022-09-03T09:22:10.341Z,24.58
2022-09-03T09:24:10.243Z,24.52
2022-09-03T09:26:10.271Z,24.78
2022-09-03T09:28:10.321Z,24.64
2022-09-03T09:30:10.296Z,24.43
2022-09-03T09:32:10.197Z,24.50
2022-09-03T09:34:10.376Z,24.53
2022-09-03T09:36:10.374Z,24.54
2022-09-03T09:38:10.220Z,24.54
2022-09-03T09:40:10.194Z,24.66
2022-09-03T09:42:10.329Z,24.82
2022-09-03T09:44:10.345Z,25.06
2022-09-03T09:46:10.385Z,24.60
2022-09-03T09:48:10.420Z,24.20
2022-09-03T09:50:10.352Z,24.08
2022-09-03T09:52:10.378Z,23.92
2022-09-03T09:54:10.358Z,23.81
2022-09-03T09:56:10.316Z,23.71
2022-09-03T09:58:14.305Z,23.61
2022-09-03T10:00:10.240Z,23.81
2022-09-03T10:02:10.388Z,23.77
2022-09-03T10:04:10.439Z,23.73
2022-09-03T10:06:10.381Z,23.77
2022-09-03T10:08:10.368Z,23.76
2022-09-03T10:10:10.196Z,23.75
2022-09-03T10:12:10.279Z,23.80
2022-09-03T10:14:10.345Z,23.91
2022-09-03T10:16:10.488Z,24.10
2022-09-03T10:18:10.337Z,24.61
2022-09-03T10:20:10.361Z,24.85
2022-09-03T10:22:10.380Z,24.90
2022-09-03T10:24:10.322Z,25.10
2022-09-03T10:26:10.401Z,25.75
2022-09-03T10:28:10.295Z,25.27
2022-09-03T10:30:10.430Z,25.24
2022-09-03T10:32:10.400Z,25.33
2022-09-03T10:34:10.361Z,25.56
2022-09-03T10:36:10.313Z,25.25
2022-09-03T10:38:10.354Z,25.12
2022-09-03T10:40:10.400Z,24.90
2022-09-03T10:42:10.251Z,24.80
2022-09-03T10:44:10.304Z,25.22
2022-09-03T10:46:10.327Z,24.91
2022-09-03T10:48:10.428Z,24.81
2022-09-03T10:50:10.420Z,25.26
2022-09-03T10:52:10.348Z,26.41
2022-09-03T10:54:10.426Z,26.77
2022-09-03T10:56:10.311Z,26.96
2022-09-03T10:58:10.406Z,27.08
2022-09-03T11:00:10.447Z,25.90
2022-09-03T11:02:10.432Z,26.55
2022-09-03T11:04:10.350Z,26.62
2022-09-03T11:06:10.436Z,26.93
2022-09-03T11:08:10.417Z,27.20
2022-09-03T11:10:10.342Z,26.50
2022-09-03T11:12:10.449Z,26.71
2022-09-03T11:14:10.469Z,26.29
2022-09-03T11:16:10.479Z,26.84
2022-09-03T11:18:10.420Z,26.99
2022-09-03T11:20:10.482Z,26.79
2022-09-03T11:22:10.456Z,26.52
2022-09-03T11:24:10.483Z,26.53
2022-09-03T11:26:10.466Z,26.45
2022-09-03T11:28:10.485Z,25.86
2022-09-03T11:30:10.463Z,26.37
2022-09-03T11:32:10.329Z,25.85
2022-09-03T11:34:10.425Z,26.48
2022-09-03T11:36:10.429Z,27.31
2022-09-03T11:38:10.402Z,27.01
2022-09-03T11:40:10.478Z,25.52
2022-09-03T11:42:10.360Z,27.39
2022-09-03T11:44:10.413Z,27.22
2022-09-03T11:46:10.638Z,25.52
2022-09-03T11:48:10.484Z,26.93
2022-09-03T11:50:10.480Z,26.03
2022-09-03T11:52:10.473Z,25.80
2022-09-03T11:54:10.358Z,26.18
2022-09-03T11:56:10.364Z,26.89
2022-09-03T11:58:10.501Z,27.73
2022-09-03T12:00:10.497Z,27.37
2022-09-03T12:02:10.494Z,27.50
2022-09-03T12:04:10.547Z,27.86
2022-09-03T12:06:10.519Z,28.03
2022-09-03T12:08:10.532Z,27.85
2022-09-03T12:10:10.412Z,27.72
2022-09-03T12:12:10.414Z,27.19
2022-09-03T12:14:13.574Z,28.01
2022-09-03T12:16:10.608Z,27.85
2022-09-03T12:18:10.560Z,27.78
2022-09-03T12:20:10.512Z,27.38
2022-09-03T12:22:10.505Z,27.49
2022-09-03T12:24:10.407Z,27.78
2022-09-03T12:26:10.520Z,25.51
2022-09-03T12:28:10.383Z,28.07
2022-09-03T12:30:10.395Z,27.80
2022-09-03T12:32:10.562Z,27.50
2022-09-03T12:34:10.545Z,27.49
2022-09-03T12:36:10.586Z,27.55
2022-09-03T12:38:13.808Z,25.52
2022-09-03T12:40:10.612Z,25.52
2022-09-03T12:42:10.484Z,25.52
2022-09-03T12:44:10.564Z,27.62
2022-09-03T12:46:11.083Z,25.42
2022-09-03T12:48:10.632Z,25.61
2022-09-03T12:50:11.170Z,25.44
2022-09-03T12:52:10.541Z,27.50
2022-09-03T12:54:10.545Z,27.43
2022-09-03T12:56:11.089Z,25.19
2022-09-03T12:58:13.628Z,26.92
2022-09-03T13:00:10.573Z,27.46
2022-09-03T13:02:10.617Z,27.45
2022-09-03T13:04:10.593Z,27.40
2022-09-03T13:06:10.671Z,27.41
2022-09-03T13:08:10.635Z,25.80
2022-09-03T13:10:10.581Z,27.72
2022-09-03T13:12:10.560Z,26.54
2022-09-03T13:14:10.563Z,27.62
2022-09-03T13:16:10.723Z,27.77
2022-09-03T13:18:10.644Z,27.99
2022-09-03T13:20:10.618Z,28.02
2022-09-03T13:22:10.559Z,25.57
2022-09-03T13:24:10.521Z,25.80
2022-09-03T13:26:10.600Z,25.65
2022-09-03T13:28:10.586Z,25.52
2022-09-03T13:30:10.616Z,25.54
2022-09-03T13:32:10.632Z,25.65
2022-09-03T13:34:10.591Z,25.81
2022-09-03T13:36:10.581Z,27.72
2022-09-03T13:38:10.546Z,25.91
2022-09-03T13:40:10.508Z,25.97
2022-09-03T13:42:10.519Z,25.83
2022-09-03T13:44:10.657Z,25.56
2022-09-03T13:46:10.628Z,25.52
2022-09-03T13:48:10.615Z,27.45
2022-09-03T13:50:10.612Z,27.16
2022-09-03T13:52:10.645Z,27.39
2022-09-03T13:54:10.609Z,27.58
2022-09-03T13:56:10.580Z,26.98
2022-09-03T13:58:10.528Z,27.51
2022-09-03T14:00:10.639Z,26.65
2022-09-03T14:02:10.589Z,27.47
2022-09-03T14:04:10.668Z,26.32
2022-09-03T14:06:10.527Z,27.50
2022-09-03T14:08:10.672Z,25.37
2022-09-03T14:10:10.638Z,27.23
2022-09-03T14:12:10.913Z,26.23
2022-09-03T14:14:10.600Z,26.20
2022-09-03T14:16:10.726Z,26.38
2022-09-03T14:18:10.549Z,26.48
2022-09-03T14:20:10.701Z,26.52
2022-09-03T14:22:10.654Z,26.37
2022-09-03T14:24:10.600Z,26.29
2022-09-03T14:26:10.698Z,26.48
2022-09-03T14:28:10.725Z,26.23
2022-09-03T14:30:10.673Z,26.05
2022-09-03T14:32:10.642Z,28.16
2022-09-03T14:34:10.555Z,27.05
2022-09-03T14:36:10.655Z,26.57
2022-09-03T14:38:10.659Z,26.34
2022-09-03T14:40:10.665Z,28.06
2022-09-03T14:42:10.693Z,28.17
2022-09-03T14:44:10.593Z,28.09
2022-09-03T14:46:10.754Z,27.83
2022-09-03T14:48:10.732Z,27.62
2022-09-03T14:50:10.649Z,27.79
2022-09-03T14:52:10.522Z,27.95
2022-09-03T14:54:10.689Z,25.23
2022-09-03T14:56:10.721Z,25.51
2022-09-03T14:58:10.738Z,26.22
2022-09-03T15:00:12.073Z,26.27
2022-09-03T15:02:10.765Z,26.20
2022-09-03T15:04:10.635Z,25.99
2022-09-03T15:06:10.724Z,25.99
2022-09-03T15:08:10.722Z,25.96
2022-09-03T15:10:10.753Z,26.10
2022-09-03T15:12:10.660Z,26.22
2022-09-03T15:14:10.584Z,26.37
2022-09-03T15:16:10.814Z,26.18
2022-09-03T15:18:10.730Z,25.94
2022-09-03T15:20:10.743Z,26.27
2022-09-03T15:22:10.736Z,26.19
2022-09-03T15:24:10.735Z,26.02
2022-09-03T15:26:10.611Z,26.20
2022-09-03T15:28:10.642Z,26.20
2022-09-03T15:30:10.694Z,26.07
2022-09-03T15:32:11.195Z,24.74
2022-09-03T15:34:10.700Z,24.67
2022-09-03T15:36:10.709Z,24.73
2022-09-03T15:38:10.777Z,24.55
2022-09-03T15:40:10.742Z,24.52
2022-09-03T15:42:10.718Z,24.57
2022-09-03T15:44:11.538Z,24.66
2022-09-03T15:46:10.929Z,24.66
2022-09-03T15:48:10.642Z,24.82
2022-09-03T15:50:10.767Z,24.69
2022-09-03T15:52:10.697Z,24.57
2022-09-03T15:54:10.790Z,24.67
2022-09-03T15:56:13.778Z,24.54
2022-09-03T15:58:10.715Z,24.59
2022-09-03T16:00:10.719Z,24.66
2022-09-03T16:02:10.801Z,24.48
2022-09-03T16:04:10.823Z,24.63
2022-09-03T16:06:12.629Z,24.85
2022-09-03T16:08:10.732Z,24.90
2022-09-03T16:10:24.622Z,24.76
2022-09-03T16:12:10.833Z,24.90
2022-09-03T16:14:10.662Z,24.78
2022-09-03T16:16:10.815Z,24.90
2022-09-03T16:18:10.662Z,24.66
2022-09-03T16:20:10.823Z,24.66
2022-09-03T16:22:10.822Z,24.38
2022-09-03T16:24:10.704Z,24.38
2022-09-03T16:26:10.671Z,24.50
2022-09-03T16:28:14.881Z,24.39
2022-09-03T16:30:10.738Z,24.34
2022-09-03T16:32:10.761Z,24.30
2022-09-03T16:34:14.204Z,24.34
2022-09-03T16:36:10.809Z,24.25
2022-09-03T16:38:10.723Z,24.57
2022-09-03T16:40:10.694Z,24.65
2022-09-03T16:42:10.887Z,24.64
2022-09-03T16:44:10.729Z,24.53
2022-09-03T16:46:10.821Z,24.60
2022-09-03T16:48:10.808Z,24.56
2022-09-03T16:50:10.757Z,24.66
2022-09-03T16:52:10.873Z,24.65
2022-09-03T16:54:10.816Z,24.51
2022-09-03T16:56:10.779Z,24.53
2022-09-03T16:58:10.800Z,24.48
2022-09-03T17:00:10.851Z,24.78
2022-09-03T17:02:37.038Z,24.53
2022-09-03T17:04:10.814Z,24.66
2022-09-03T17:06:10.684Z,24.61
2022-09-03T17:08:10.750Z,24.54
2022-09-03T17:10:10.671Z,24.66
2022-09-03T17:12:10.883Z,24.54
2022-09-03T17:14:10.808Z,24.36
2022-09-03T17:16:10.911Z,24.28
2022-09-03T17:18:10.694Z,24.16
2022-09-03T17:20:10.830Z,24.18
2022-09-03T17:22:10.766Z,24.04
2022-09-03T17:24:10.733Z,24.18
2022-09-03T17:26:12.608Z,24.16
2022-09-03T17:28:10.815Z,24.35
2022-09-03T17:30:10.904Z,24.33
2022-09-03T17:32:10.849Z,24.43
2022-09-03T17:34:10.911Z,24.33
2022-09-03T17:36:10.827Z,24.37
2022-09-03T17:38:10.803Z,24.27
2022-09-03T17:40:10.868Z,24.33
2022-09-03T17:42:10.783Z,24.27
2022-09-03T17:44:10.885Z,24.47
2022-09-03T17:46:10.910Z,24.33
2022-09-03T17:48:10.880Z,24.38
2022-09-03T17:50:10.854Z,24.25
2022-09-03T17:52:10.892Z,24.32
2022-09-03T17:54:10.789Z,24.22
2022-09-03T17:56:10.896Z,24.36
2022-09-03T17:58:10.894Z,24.21
2022-09-03T18:00:10.877Z,24.15
2022-09-03T18:02:10.976Z,24.20
2022-09-03T18:04:10.941Z,24.12
2022-09-03T18:06:10.938Z,24.14
2022-09-03T18:08:10.935Z,23.96
2022-09-03T18:10:10.940Z,23.84
2022-09-03T18:12:10.897Z,23.90
2022-09-03T18:14:10.886Z,23.86
2022-09-03T18:16:10.985Z,23.84
2022-09-03T18:18:10.890Z,23.84
2022-09-03T18:20:10.941Z,23.73
2022-09-03T18:22:10.866Z,24.11
2022-09-03T18:24:10.938Z,24.16
2022-09-03T18:26:10.917Z,24.10
2022-09-03T18:28:10.880Z,24.10
2022-09-03T18:30:10.800Z,24.18
2022-09-03T18:32:10.945Z,24.21
2022-09-03T18:34:10.937Z,24.22
2022-09-03T18:36:10.851Z,24.09
2022-09-03T18:38:10.950Z,24.12
2022-09-03T18:40:10.986Z,24.44
2022-09-03T18:42:10.949Z,24.10
2022-09-03T18:44:10.977Z,24.16
2022-09-03T18:47:05.705Z,24.34
2022-09-03T18:48:16.339Z,24.48
2022-09-03T18:50:10.953Z,24.27
2022-09-03T18:52:10.883Z,24.28
2022-09-03T18:54:10.830Z,24.12
2022-09-03T18:56:10.959Z,24.21
2022-09-03T18:58:10.971Z,24.12
2022-09-03T19:00:10.886Z,23.82
2022-09-03T19:02:11.013Z,23.95
2022-09-03T19:04:10.884Z,23.88
2022-09-03T19:06:10.891Z,23.90
2022-09-03T19:08:10.817Z,23.82
2022-09-03T19:10:10.938Z,23.85
2022-09-03T19:12:10.918Z,23.82
2022-09-03T19:14:10.979Z,24.09
2022-09-03T19:16:11.004Z,24.11
2022-09-03T19:18:11.011Z,24.12
2022-09-03T19:20:10.842Z,24.08
2022-09-03T19:22:11.051Z,23.96
2022-09-03T19:24:11.010Z,23.98
2022-09-03T19:26:10.964Z,23.97
2022-09-03T19:28:11.019Z,24.00
2022-09-03T19:30:10.966Z,23.93
2022-09-03T19:32:10.969Z,24.07
2022-09-03T19:34:11.056Z,24.04
2022-09-03T19:36:11.092Z,24.02
2022-09-03T19:38:10.897Z,24.02
2022-09-03T19:40:11.031Z,24.09
2022-09-03T19:42:11.040Z,23.95
2022-09-03T19:44:10.883Z,24.01
2022-09-03T19:46:11.006Z,23.96
2022-09-03T19:48:11.062Z,23.96
2022-09-03T19:50:11.058Z,23.63
2022-09-03T19:52:11.036Z,23.81
2022-09-03T19:54:11.037Z,23.57
2022-09-03T19:56:10.808Z,23.57
2022-09-03T19:58:41.663Z,23.70
2022-09-03T20:00:11.057Z,23.80
2022-09-03T20:02:10.999Z,23.67
2022-09-03T20:04:11.050Z,23.61
2022-09-03T20:06:11.564Z,23.89
2022-09-03T20:08:10.985Z,23.91
2022-09-03T20:10:11.029Z,24.02
2022-09-03T20:12:11.016Z,23.98
2022-09-03T20:14:10.996Z,23.96
2022-09-03T20:16:11.139Z,23.85
2022-09-03T20:18:11.072Z,23.81
2022-09-03T20:20:10.993Z,23.81
2022-09-03T20:22:11.043Z,23.91
2022-09-03T20:24:11.000Z,23.88
2022-09-03T20:26:11.103Z,23.93
2022-09-03T20:28:11.069Z,23.81
2022-09-03T20:30:11.069Z,23.91
2022-09-03T20:32:11.085Z,23.81
2022-09-03T20:34:10.980Z,23.87
2022-09-03T20:36:11.110Z,23.88
2022-09-03T20:38:11.033Z,23.89
2022-09-03T20:40:11.103Z,23.86
2022-09-03T20:42:11.073Z,23.57
2022-09-03T20:44:11.055Z,23.52
2022-09-03T20:46:11.181Z,23.48
2022-09-03T20:48:11.045Z,23.54
2022-09-03T20:50:10.997Z,23.51
2022-09-03T20:52:11.054Z,23.55
2022-09-03T20:54:10.951Z,23.59
2022-09-03T20:56:11.109Z,23.56
2022-09-03T20:58:11.067Z,23.68
2022-09-03T21:00:11.030Z,23.81
2022-09-03T21:02:11.161Z,23.78
2022-09-03T21:04:11.052Z,23.84
2022-09-03T21:06:11.118Z,23.79
2022-09-03T21:08:11.114Z,23.77
2022-09-03T21:10:11.088Z,23.66
2022-09-03T21:12:11.111Z,23.70
2022-09-03T21:14:11.050Z,23.77
2022-09-03T21:16:11.122Z,23.66
2022-09-03T21:18:11.118Z,23.69
2022-09-03T21:20:11.155Z,23.72
2022-09-03T21:22:11.098Z,23.75
2022-09-03T21:24:11.071Z,23.72
2022-09-03T21:26:11.208Z,23.65
2022-09-03T21:28:11.125Z,23.65
2022-09-03T21:30:11.150Z,23.77
2022-09-03T21:32:11.056Z,23.70
2022-09-03T21:34:11.152Z,23.52
2022-09-03T21:36:11.180Z,23.53
2022-09-03T21:38:11.021Z,23.41
2022-09-03T21:40:11.161Z,23.41
2022-09-03T21:42:11.046Z,23.40
2022-09-03T21:44:11.100Z,23.34
2022-09-03T21:46:11.140Z,23.40
2022-09-03T21:48:11.177Z,23.51
2022-09-03T21:50:16.323Z,23.66
2022-09-03T21:52:11.185Z,23.53
2022-09-03T21:54:11.110Z,23.56
2022-09-03T21:56:11.206Z,23.58
2022-09-03T21:58:11.166Z,23.63
2022-09-03T22:00:11.163Z,23.56
2022-09-03T22:02:11.220Z,23.60
2022-09-03T22:04:11.151Z,23.59
2022-09-03T22:06:11.070Z,23.54
2022-09-03T22:08:11.182Z,23.68
2022-09-03T22:10:11.186Z,23.73
2022-09-03T22:12:11.227Z,23.81
2022-09-03T22:14:11.201Z,23.63
2022-09-03T22:16:11.151Z,23.56
2022-09-03T22:18:11.234Z,23.53
2022-09-03T22:20:11.023Z,23.68
2022-09-03T22:22:11.191Z,23.70
2022-09-03T22:24:11.197Z,23.66
2022-09-03T22:26:11.275Z,23.34
2022-09-03T22:28:11.198Z,23.34
2022-09-03T22:30:11.076Z,23.25
2022-09-03T22:32:11.217Z,23.34
2022-09-03T22:34:11.251Z,23.39
2022-09-03T22:36:11.192Z,23.25
2022-09-03T22:38:11.264Z,23.37
2022-09-03T22:40:11.231Z,23.53
2022-09-03T22:42:11.222Z,23.52
2022-09-03T22:44:11.013Z,23.54
2022-09-03T22:46:11.328Z,23.54
2022-09-03T22:48:11.268Z,23.53
2022-09-03T22:50:11.239Z,23.53
2022-09-03T22:52:11.250Z,23.50
2022-09-03T22:54:11.140Z,23.49
2022-09-03T22:56:11.240Z,23.56
2022-09-03T22:58:11.298Z,23.53
2022-09-03T23:00:11.282Z,23.55
2022-09-03T23:02:11.266Z,23.49
2022-09-03T23:04:11.255Z,23.52
2022-09-03T23:06:11.245Z,23.53
2022-09-03T23:08:11.193Z,23.53
2022-09-03T23:10:11.230Z,23.52
2022-09-03T23:12:11.166Z,23.52
2022-09-03T23:14:11.233Z,23.45
2022-09-03T23:16:11.309Z,23.17
2022-09-03T23:18:11.183Z,23.20
2022-09-03T23:22:11.300Z,23.11
2022-09-03T23:24:11.270Z,23.07
2022-09-03T23:26:11.192Z,23.10
2022-09-03T23:28:11.179Z,23.13
2022-09-03T23:30:11.241Z,23.10
2022-09-03T23:32:11.356Z,23.34
2022-09-03T23:34:11.100Z,23.31
2022-09-03T23:36:11.236Z,23.44
2022-09-03T23:38:11.225Z,23.31
2022-09-03T23:40:11.329Z,23.34
2022-09-03T23:42:11.301Z,23.34
2022-09-03T23:44:11.237Z,23.30
2022-09-03T23:46:11.350Z,23.39
2022-09-03T23:48:11.304Z,23.39
2022-09-03T23:50:11.245Z,23.34
2022-09-03T23:52:11.232Z,23.38
2022-09-03T23:54:11.317Z,23.30
2022-09-03T23:56:11.308Z,23.31
2022-09-03T23:58:11.170Z,23.36
